Airfield :
LOGIN :

Register | Disclaimer

   EN    FR    IT 

 










Legend :    VFR   Marginal VFR   IFR   Intensive IFR   Very Intensive IFR
Visi :
Ceiling :
>= 8 km
>= 3000ft
5 to 8 km
1000 to 3000 ft
1500m to 5 km
500 to 1000 ft
800 to 1500m
200 to 500 ft
< 800m
< 200 ft
Symbols :   Thunderstorms  Fog  Heavy snow  Heavy precipitations  Wind > 20 kt
SIGMETs :     Misc.  Thunderstorms  Icing  Turbulence  Mountain Waves  Volcanic Ashes







- Airport Elevation : 7 ft
- IATA code : ESH
- Download approach charts


EGKA - Shoreham

CURRENT METAR :
  • 151120Z 35008KT 7000 FEW003 BKN012 16/15 Q1010

EXPIRED METARs :
  • 151050Z 35009KT 5000 BR FEW003 SCT008 SCT012 15/14 Q1010
  • 151020Z 35009KT 7000 3500N -DZ SCT003 BKN008 14/13 Q1009
  • 150950Z 35009KT 7000 3500N FEW003 BKN010 14/13 Q1009
  • 150920Z 35010KT 7000 2500N FEW004 BKN010 14/13 Q1009
  • 150850Z 35012KT 7000 2500N FEW004 BKN010 13/13 Q1008

TAF TAF EGKA
Valid from the 15 at 12:00 until the 15 at 19:00 UTC


151058Z 1512/1519 14008KT 9999 BKN010
TEMPO 1512/1519 6000 -RA BKN003
BECMG 1517/1519 FEW010
ATIS : +44 1273 467 372
No reported NOTAMs for that airfield.



MET'MAP, your aeronautical weather chart ! - Copyright ORBIFLY December 2007 - Disclaimer

ORBIFLY MET'MAP TEAM :

Programming & Development : Alexandra Zaïnal
Concept & Development : Baudouin d'Aumeries
Co-Development & Prog : Marc-Olivier Méhu
Technical & hardware support : Manuel Goepfert

Contact : metmap@orbifly.com




SOURCES & CREDITS :

   NOAA